Impacts TAF Board INFO
FOR SITUATIONAL AWARENESS. NOT TO BE USED FOR FLIGHT PLANNING PURPOSES.
IDs:

KDHN - Dothan Rgnl, AL, US

Issued at 1727 UTC 24 Feb 2018
Updated at 2146 UTC 24 Feb 2018
Potential Impact None Slight Moderate High
Time2053Z 24/22Z 24/23Z 25/00Z 25/01Z 25/02Z 25/03Z 25/04Z 25/05Z 25/06Z 25/07Z 25/08Z 25/09Z 25/10Z>>
Type OBS PRVL PRVL PRVL PRVL PRVL PRVL PRVL PRVL PRVL PRVL PRVL PRVL PRVL
VIS 10 >6 >6 >6 >6 >6 >6 >6 >6 >6 >6 4 4 4
CIG -- -- -- -- -- -- -- -- -- -- -- 20 20 20
Cover FEW SCT SCT SCT SCT SCT SCT SCT SCT SCT SCT BKN BKN BKN
FltCat VFR VFR VFR VFR VFR VFR VFR VFR VFR VFR VFR MVFR MVFR MVFR
WX -- -- -- -- -- -- -- -- -- -- -- BR BR BR
WDir 190 180 180 180 180 180 180 180 180 180 180 190 190 190
WSpd 16 10 10 10 10 10 10 10 10 10 10 6 6 6
WGst 22 -- -- -- -- -- -- -- -- -- -- -- -- --

Raw TAF
KDHN 241727Z 2418/2518 18010KT P6SM SCT030
  FM250800 19006KT 4SM BR BKN020
  FM251400 20007KT P6SM BKN025
  FM251500 21010KT P6SM BKN035


Raw METAR
KDHN 242053Z 19016G22KT 10SM FEW050 28/14 A3010 RMK AO2 SLP187 T02830139 56033
KDHN 241953Z 21014KT 10SM FEW049 FEW075 28/14 A3012 RMK AO2 SLP193 T02830144
KDHN 241853Z 17013KT 10SM BKN045 BKN060 27/15 A3015 RMK AO2 SLP206 T02670150

METAR Board
Radar Display
Forecast Discussion

FOR SITUATIONAL AWARENESS. NOT TO BE USED FOR FLIGHT PLANNING PURPOSES.